Date,TemperatureHighF,TemperatureAvgF,TemperatureLowF,DewpointHighF,DewpointAvgF,DewpointLowF,HumidityHigh,HumidityAvg,HumidityLow,PressureMaxIn,PressureMinIn,WindSpeedMaxMPH,WindSpeedAvgMPH,GustSpeedMaxMPH,PrecipitationSumIn
2013-2-1,1,-11,-22,-6,-17,-28,72,72,72,26.37,26.37,8,2,11,0.00
2013-2-2,9,0,-12,2,-7,-19,72,72,72,26.37,26.37,13,3,13,0.00
2013-2-3,9,5,-1,2,-2,-8,72,72,72,26.37,26.37,6,3,9,0.00
2013-2-4,18,7,-1,14,1,-7,86,74,72,26.37,26.37,17,3,17,0.00
2013-2-5,30,14,8,26,8,2,89,79,76,26.37,26.37,10,4,13,0.00
2013-2-6,29,20,9,20,13,3,80,73,63,26.37,26.37,11,3,12,0.16
2013-2-7,23,16,10,16,10,5,81,78,72,26.37,26.37,6,2,8,0.00
2013-2-8,24,19,10,19,14,7,88,79,65,26.37,26.37,13,4,21,0.00
2013-2-9,33,29,23,31,25,18,95,85,75,26.37,26.37,11,3,13,0.00
2013-2-10,33,32,29,33,32,28,98,98,93,26.37,26.37,15,5,15,0.00
2013-2-11,29,23,17,28,21,14,98,93,89,26.37,26.37,17,6,21,0.00
2013-2-12,33,22,10,33,21,7,98,92,84,26.37,26.37,8,2,9,0.00
2013-2-13,36,28,18,35,27,16,98,97,91,26.37,26.37,6,1,8,0.00
2013-2-14,22,14,4,20,11,0,96,87,83,26.37,26.37,11,4,13,0.00
2013-2-15,12,5,-5,8,1,-8,84,84,84,26.37,26.37,6,1,8,0.00
2013-2-16,16,9,-4,11,5,-8,84,82,76,26.37,26.37,11,4,13,0.00
2013-2-17,33,24,13,31,20,8,94,85,78,26.37,26.37,15,6,17,0.00
2013-2-18,34,12,-1,33,10,-4,98,89,86,26.37,26.37,18,8,23,0.00
2013-2-19,-1,-7,-12,-4,-10,-15,86,86,86,26.37,26.37,14,6,16,0.00
2013-2-20,4,-6,-16,1,-9,-19,86,86,86,26.37,26.37,5,1,7,0.00
2013-2-21,20,8,-5,10,1,-8,86,72,49,26.37,26.37,6,1,11,0.16
2013-2-22,20,15,11,15,8,1,82,72,64,26.37,26.37,8,2,8,0.00
2013-2-23,23,14,4,18,9,-1,83,80,73,26.37,26.37,5,0,6,0.00
2013-2-24,22,11,-1,15,5,-6,82,77,65,26.37,26.37,10,2,10,0.00
2013-2-25,26,21,10,24,16,7,95,83,65,26.37,26.37,10,2,11,0.00
2013-2-26,25,22,16,22,20,14,95,92,91,26.37,26.37,6,1,8,0.00
2013-2-27,30,20,9,28,17,7,94,90,84,26.37,26.37,11,3,15,0.00
2013-2-28,28,24,19,22,18,13,89,77,61,26.37,26.37,8,3,11,0.00